Time;durP1;ratioP1;P1;durP2;ratioP2;P2;SDS_P1;SDS_P2;PMS_P1;PMS_P2;Temp;Humidity;BMP_temperature;BMP_pressure;BME280_temperature;BME280_humidity;BME280_pressure;Samples;Min_cycle;Max_cycle;Signal;HPM_P1;HPM_P2
2021/07/29 00:01:23;0.00;0.00;0.62;0.00;0.00;0.62;3.50;2.97;;;26.50;34.70;;;;;;2265034;61;20416;-59
2021/07/29 00:03:52;0.00;0.00;0.62;0.00;0.00;0.62;4.80;2.70;;;26.50;34.80;;;;;;2265667;61;20379;-59
2021/07/29 00:06:19;0.00;0.00;0.62;0.00;0.00;0.62;3.40;2.30;;;26.50;34.70;;;;;;2265424;61;20362;-59
2021/07/29 00:08:46;0.00;0.00;0.62;0.00;0.00;0.62;3.17;2.50;;;26.50;34.70;;;;;;2265053;61;20357;-57
2021/07/29 00:11:18;0.00;0.00;0.62;0.00;0.00;0.62;3.40;2.60;;;26.50;34.70;;;;;;2265036;61;20360;-60
2021/07/29 00:13:45;0.00;0.00;0.62;0.00;0.00;0.62;4.90;3.03;;;26.50;34.70;;;;;;2265394;61;20365;-57
2021/07/29 00:16:12;0.00;0.00;0.62;0.00;0.00;0.62;2.87;2.40;;;26.50;34.70;;;;;;2265208;61;20424;-58
2021/07/29 00:21:26;0.00;0.00;0.62;0.00;0.00;0.62;3.27;2.97;;;26.50;34.70;;;;;;2265212;61;20423;-58
2021/07/29 00:23:53;0.00;0.00;0.62;0.00;0.00;0.62;3.07;2.30;;;26.50;34.80;;;;;;2261329;61;20717;-59
2021/07/29 00:26:20;0.00;0.00;0.62;0.00;0.00;0.62;2.73;2.43;;;26.50;34.80;;;;;;2265759;61;20376;-57
2021/07/29 00:28:47;0.00;0.00;0.62;0.00;0.00;0.62;4.07;2.47;;;26.50;34.80;;;;;;2265294;61;20354;-60
2021/07/29 00:31:14;0.00;0.00;0.62;0.00;0.00;0.62;2.90;2.60;;;26.50;34.90;;;;;;2264425;61;20346;-57
2021/07/29 00:33:41;0.00;0.00;0.62;0.00;0.00;0.62;4.03;2.60;;;26.50;34.90;;;;;;2265685;61;20800;-57
2021/07/29 00:36:07;0.00;0.00;0.62;0.00;0.00;0.62;3.43;2.20;;;26.60;35.00;;;;;;2265022;61;20354;-59
2021/07/29 00:38:35;0.00;0.00;0.62;0.00;0.00;0.62;4.57;3.00;;;26.50;34.90;;;;;;2265005;61;20396;-58
2021/07/29 00:41:02;0.00;0.00;0.62;0.00;0.00;0.62;2.43;2.23;;;26.50;34.90;;;;;;2265458;61;20701;-56
2021/07/29 00:43:28;0.00;0.00;0.62;0.00;0.00;0.62;3.10;2.80;;;26.60;35.00;;;;;;2265371;61;20644;-58
2021/07/29 00:45:56;0.00;0.00;0.62;0.00;0.00;0.62;4.33;2.50;;;26.60;34.90;;;;;;2264899;61;20373;-58
2021/07/29 00:48:23;0.00;0.00;0.62;0.00;0.00;0.62;2.83;2.50;;;26.50;34.70;;;;;;2265643;61;20553;-58
2021/07/29 00:50:50;0.00;0.00;0.62;0.00;0.00;0.62;3.03;2.73;;;26.50;34.60;;;;;;2265181;61;20437;-60
2021/07/29 00:53:17;0.00;0.00;0.62;0.00;0.00;0.62;4.63;2.37;;;26.50;34.50;;;;;;2264480;61;20719;-60
2021/07/29 00:55:45;0.00;0.00;0.62;0.00;0.00;0.62;3.27;2.70;;;26.50;34.50;;;;;;2265779;61;20374;-57
2021/07/29 00:58:12;0.00;0.00;0.62;0.00;0.00;0.62;5.20;2.57;;;26.50;34.40;;;;;;2265436;61;20699;-59
2021/07/29 01:00:38;0.00;0.00;0.62;0.00;0.00;0.62;4.70;3.33;;;26.50;34.40;;;;;;2265475;61;20356;-59
2021/07/29 01:03:05;0.00;0.00;0.62;0.00;0.00;0.62;2.70;2.23;;;26.40;34.40;;;;;;2266301;61;20500;-58
2021/07/29 01:05:32;0.00;0.00;0.62;0.00;0.00;0.62;4.10;2.60;;;26.40;34.50;;;;;;2265976;61;20772;-59
2021/07/29 01:07:58;0.00;0.00;0.62;0.00;0.00;0.62;3.23;2.80;;;26.40;34.40;;;;;;2265484;61;20358;-59
2021/07/29 01:10:25;0.00;0.00;0.62;0.00;0.00;0.62;4.20;2.80;;;26.40;34.30;;;;;;2266259;61;20411;-57
2021/07/29 01:12:53;0.00;0.00;0.62;0.00;0.00;0.62;3.30;2.70;;;26.30;34.30;;;;;;2265813;61;20388;-56
2021/07/29 01:15:20;0.00;0.00;0.62;0.00;0.00;0.62;4.13;2.97;;;26.30;34.30;;;;;;2265500;61;20374;-58
2021/07/29 01:17:46;0.00;0.00;0.62;0.00;0.00;0.62;4.10;2.63;;;26.30;34.30;;;;;;2266443;61;20691;-59
2021/07/29 01:20:22;0.00;0.00;0.62;0.00;0.00;0.62;3.60;2.83;;;26.20;34.20;;;;;;2265218;61;20429;-59
2021/07/29 01:22:49;0.00;0.00;0.62;0.00;0.00;0.62;5.70;3.10;;;26.20;34.10;;;;;;2265567;61;20455;-57
2021/07/29 01:25:15;0.00;0.00;0.62;0.00;0.00;0.62;3.03;2.33;;;26.20;34.10;;;;;;2266231;61;20611;-58
2021/07/29 01:27:42;0.00;0.00;0.62;0.00;0.00;0.62;5.57;2.60;;;26.10;34.00;;;;;;2265858;61;20354;-59
2021/07/29 01:30:11;0.00;0.00;0.62;0.00;0.00;0.62;6.00;2.37;;;26.00;34.00;;;;;;2265443;61;20559;-58
2021/07/29 01:32:39;0.00;0.00;0.62;0.00;0.00;0.62;3.37;2.50;;;26.00;34.00;;;;;;2266316;61;20354;-56
2021/07/29 01:35:11;0.00;0.00;0.62;0.00;0.00;0.62;4.23;2.53;;;25.90;34.10;;;;;;2265691;61;20374;-57
2021/07/29 01:37:40;0.00;0.00;0.62;0.00;0.00;0.62;3.53;2.70;;;25.90;34.30;;;;;;2265610;61;20357;-58
2021/07/29 01:40:09;0.00;0.00;0.62;0.00;0.00;0.62;3.97;3.10;;;25.90;34.50;;;;;;2266072;61;20362;-57
2021/07/29 01:42:36;0.00;0.00;0.62;0.00;0.00;0.62;3.03;2.50;;;25.80;34.70;;;;;;2265696;61;20381;-58
2021/07/29 01:45:06;0.00;0.00;0.62;0.00;0.00;0.62;4.40;2.73;;;25.70;34.90;;;;;;2265633;61;20424;-58
2021/07/29 01:47:37;0.00;0.00;0.62;0.00;0.00;0.62;4.20;3.40;;;25.70;35.10;;;;;;2266298;61;20341;-59
2021/07/29 01:50:06;0.00;0.00;0.62;0.00;0.00;0.62;3.30;2.67;;;25.70;35.30;;;;;;2265463;61;20365;-59
2021/07/29 01:52:36;0.00;0.00;0.62;0.00;0.00;0.62;6.50;3.13;;;25.60;35.30;;;;;;2265618;61;20350;-56
2021/07/29 01:55:06;0.00;0.00;0.62;0.00;0.00;0.62;3.43;2.60;;;25.50;35.40;;;;;;2266203;61;20382;-58
2021/07/29 01:57:35;0.00;0.00;0.62;0.00;0.00;0.62;3.23;2.73;;;25.50;35.40;;;;;;2265641;61;20437;-57
2021/07/29 02:00:02;0.00;0.00;0.62;0.00;0.00;0.62;3.97;2.70;;;25.40;35.50;;;;;;2265595;61;20669;-58
2021/07/29 02:02:39;0.00;0.00;0.62;0.00;0.00;0.62;4.20;2.83;;;25.40;35.70;;;;;;2266059;61;20377;-58
2021/07/29 02:05:07;0.00;0.00;0.62;0.00;0.00;0.62;2.77;2.47;;;25.30;35.80;;;;;;2265660;61;20417;-56
2021/07/29 02:07:33;0.00;0.00;0.62;0.00;0.00;0.62;3.90;2.60;;;25.30;35.80;;;;;;2265552;61;20361;-55
2021/07/29 02:10:00;0.00;0.00;0.62;0.00;0.00;0.62;3.87;2.50;;;25.20;35.90;;;;;;2265897;61;20354;-58
2021/07/29 02:12:28;0.00;0.00;0.62;0.00;0.00;0.62;2.93;2.30;;;25.20;36.00;;;;;;2265737;61;20691;-57
2021/07/29 02:14:55;0.00;0.00;0.62;0.00;0.00;0.62;3.40;2.70;;;25.10;36.10;;;;;;2265604;61;20385;-58
2021/07/29 02:17:21;0.00;0.00;0.62;0.00;0.00;0.62;4.37;2.20;;;25.10;36.30;;;;;;2265897;61;20698;-57
2021/07/29 02:19:48;0.00;0.00;0.62;0.00;0.00;0.62;4.80;2.83;;;25.00;36.40;;;;;;2265589;61;20539;-57
2021/07/29 02:22:15;0.00;0.00;0.62;0.00;0.00;0.62;3.30;2.70;;;25.00;36.50;;;;;;2265447;61;20397;-59
2021/07/29 02:24:41;0.00;0.00;0.62;0.00;0.00;0.62;3.57;2.80;;;24.90;36.60;;;;;;2265933;61;20373;-59
2021/07/29 02:27:08;0.00;0.00;0.62;0.00;0.00;0.62;4.73;2.87;;;24.90;36.90;;;;;;2265730;61;20387;-58
2021/07/29 02:29:36;0.00;0.00;0.62;0.00;0.00;0.62;3.03;2.73;;;24.80;37.10;;;;;;2265429;61;20392;-59
2021/07/29 02:32:04;0.00;0.00;0.62;0.00;0.00;0.62;2.70;2.40;;;24.80;37.30;;;;;;2265823;61;20550;-59
2021/07/29 02:34:30;0.00;0.00;0.62;0.00;0.00;0.62;2.80;2.50;;;24.70;37.30;;;;;;2265787;61;20776;-57
2021/07/29 02:36:57;0.00;0.00;0.62;0.00;0.00;0.62;2.60;2.23;;;24.60;37.40;;;;;;2265107;61;20358;-58
2021/07/29 02:39:23;0.00;0.00;0.62;0.00;0.00;0.62;3.83;2.70;;;24.60;37.50;;;;;;2265770;61;20361;-54
2021/07/29 02:41:50;0.00;0.00;0.62;0.00;0.00;0.62;3.00;2.70;;;24.60;37.80;;;;;;2265538;61;20378;-58
2021/07/29 02:44:16;0.00;0.00;0.62;0.00;0.00;0.62;5.17;2.80;;;24.50;37.90;;;;;;2264941;61;20374;-57
2021/07/29 02:46:44;0.00;0.00;0.62;0.00;0.00;0.62;6.30;3.00;;;24.50;38.10;;;;;;2265832;61;20433;-57
2021/07/29 02:49:11;0.00;0.00;0.62;0.00;0.00;0.62;3.80;2.60;;;24.50;38.20;;;;;;2265670;61;20709;-58
2021/07/29 02:51:37;0.00;0.00;0.62;0.00;0.00;0.62;3.50;3.07;;;24.40;38.30;;;;;;2265305;61;20350;-57
2021/07/29 02:54:04;0.00;0.00;0.62;0.00;0.00;0.62;3.37;2.73;;;24.30;38.40;;;;;;2265835;61;20731;-56
2021/07/29 02:56:30;0.00;0.00;0.62;0.00;0.00;0.62;2.83;2.53;;;24.40;39.10;;;;;;2265704;61;20357;-59
2021/07/29 02:58:57;0.00;0.00;0.62;0.00;0.00;0.62;3.23;2.87;;;24.30;38.50;;;;;;2265489;61;20771;-56
2021/07/29 03:01:25;0.00;0.00;0.62;0.00;0.00;0.62;2.97;2.40;;;24.30;38.60;;;;;;2265646;61;20386;-57
2021/07/29 03:03:53;0.00;0.00;0.62;0.00;0.00;0.62;3.27;2.77;;;24.30;38.60;;;;;;2265582;61;20381;-56
2021/07/29 03:06:20;0.00;0.00;0.62;0.00;0.00;0.62;2.93;2.63;;;24.20;38.70;;;;;;2265314;61;20427;-58
2021/07/29 03:08:47;0.00;0.00;0.62;0.00;0.00;0.62;2.93;2.63;;;24.20;38.90;;;;;;2265789;61;20695;-56
2021/07/29 03:11:13;0.00;0.00;0.62;0.00;0.00;0.62;4.13;3.03;;;24.20;39.10;;;;;;2265540;61;20350;-58
2021/07/29 03:13:40;0.00;0.00;0.62;0.00;0.00;0.62;4.20;3.13;;;24.20;39.10;;;;;;2264752;61;20368;-58
2021/07/29 03:16:07;0.00;0.00;0.62;0.00;0.00;0.62;2.93;2.50;;;24.10;39.10;;;;;;2265838;61;20370;-56
2021/07/29 03:18:34;0.00;0.00;0.62;0.00;0.00;0.62;4.47;3.53;;;24.10;39.10;;;;;;2265354;61;20353;-58
2021/07/29 03:21:04;0.00;0.00;0.62;0.00;0.00;0.62;3.07;2.77;;;24.10;39.10;;;;;;2265038;61;20363;-57
2021/07/29 03:23:31;0.00;0.00;0.62;0.00;0.00;0.62;3.63;2.70;;;24.00;39.00;;;;;;2265828;61;20374;-56
2021/07/29 03:25:58;0.00;0.00;0.62;0.00;0.00;0.62;2.93;2.63;;;24.00;39.00;;;;;;2265440;61;20378;-54
2021/07/29 03:28:25;0.00;0.00;0.62;0.00;0.00;0.62;3.20;2.60;;;24.00;39.10;;;;;;2265128;61;20356;-55
2021/07/29 03:30:54;0.00;0.00;0.62;0.00;0.00;0.62;4.30;2.97;;;24.00;39.30;;;;;;2265766;61;20354;-59
2021/07/29 03:33:22;0.00;0.00;0.62;0.00;0.00;0.62;2.80;2.40;;;24.00;39.30;;;;;;2265529;61;20346;-58
2021/07/29 03:35:49;0.00;0.00;0.62;0.00;0.00;0.62;5.23;2.97;;;23.90;39.30;;;;;;2265189;61;20747;-54
2021/07/29 03:38:18;0.00;0.00;0.62;0.00;0.00;0.62;3.63;3.13;;;23.90;39.30;;;;;;2265795;61;20964;-57
2021/07/29 03:40:45;0.00;0.00;0.62;0.00;0.00;0.62;4.67;3.27;;;23.90;39.30;;;;;;2265163;61;20368;-57
2021/07/29 03:43:12;0.00;0.00;0.62;0.00;0.00;0.62;3.27;2.80;;;23.90;39.30;;;;;;2265130;61;20605;-57
2021/07/29 03:45:40;0.00;0.00;0.62;0.00;0.00;0.62;3.27;2.97;;;23.90;39.30;;;;;;2265848;61;20380;-57
2021/07/29 03:48:07;0.00;0.00;0.62;0.00;0.00;0.62;3.00;2.70;;;23.90;39.30;;;;;;2265300;61;20350;-55
2021/07/29 03:50:35;0.00;0.00;0.62;0.00;0.00;0.62;3.97;2.93;;;23.80;39.20;;;;;;2265077;61;20369;-58
2021/07/29 03:53:02;0.00;0.00;0.62;0.00;0.00;0.62;3.63;3.00;;;23.80;39.20;;;;;;2265824;61;20343;-60
2021/07/29 03:55:31;0.00;0.00;0.62;0.00;0.00;0.62;5.37;3.00;;;23.80;39.20;;;;;;2265358;61;20724;-54
2021/07/29 03:57:58;0.00;0.00;0.62;0.00;0.00;0.62;4.63;3.00;;;23.80;39.30;;;;;;2265056;61;20400;-55
2021/07/29 04:00:25;0.00;0.00;0.62;0.00;0.00;0.62;3.00;2.70;;;23.80;39.40;;;;;;2265543;61;20706;-57
2021/07/29 04:02:52;0.00;0.00;0.62;0.00;0.00;0.62;3.00;2.70;;;23.80;39.50;;;;;;2264865;61;20378;-55
2021/07/29 04:05:19;0.00;0.00;0.62;0.00;0.00;0.62;3.80;3.40;;;23.70;39.40;;;;;;2265046;61;20370;-56
2021/07/29 04:07:45;0.00;0.00;0.62;0.00;0.00;0.62;3.63;2.70;;;23.70;39.40;;;;;;2265669;61;20350;-57
2021/07/29 04:10:12;0.00;0.00;0.62;0.00;0.00;0.62;3.37;2.90;;;23.70;39.50;;;;;;2265213;61;20404;-57
2021/07/29 04:12:40;0.00;0.00;0.62;0.00;0.00;0.62;5.90;3.60;;;23.70;39.50;;;;;;2265062;61;20349;-57
2021/07/29 04:15:09;0.00;0.00;0.62;0.00;0.00;0.62;4.03;2.90;;;23.70;39.60;;;;;;2265794;61;20401;-55
2021/07/29 04:17:35;0.00;0.00;0.62;0.00;0.00;0.62;6.27;3.27;;;23.70;39.60;;;;;;2265356;61;20369;-58
2021/07/29 04:20:04;0.00;0.00;0.62;0.00;0.00;0.62;5.60;3.13;;;23.60;39.60;;;;;;2264935;61;20623;-58
2021/07/29 04:22:31;0.00;0.00;0.62;0.00;0.00;0.62;3.17;2.70;;;23.60;39.60;;;;;;2265540;61;20734;-60
2021/07/29 04:24:58;0.00;0.00;0.62;0.00;0.00;0.62;3.80;2.83;;;23.60;39.70;;;;;;2265334;61;20385;-57
2021/07/29 04:27:24;0.00;0.00;0.62;0.00;0.00;0.62;4.60;3.30;;;23.60;39.70;;;;;;2265144;61;20429;-56
2021/07/29 04:29:52;0.00;0.00;0.62;0.00;0.00;0.62;4.90;3.13;;;23.60;39.80;;;;;;2265665;61;20361;-58
2021/07/29 04:32:20;0.00;0.00;0.62;0.00;0.00;0.62;4.50;3.30;;;23.50;39.70;;;;;;2265974;61;20357;-54
2021/07/29 04:34:47;0.00;0.00;0.62;0.00;0.00;0.62;4.40;3.50;;;23.50;39.80;;;;;;2265874;61;20381;-58
2021/07/29 04:37:14;0.00;0.00;0.62;0.00;0.00;0.62;3.73;2.57;;;23.50;39.90;;;;;;2265857;61;20712;-58
2021/07/29 04:39:42;0.00;0.00;0.62;0.00;0.00;0.62;5.50;3.20;;;23.50;40.00;;;;;;2265897;61;20592;-58
2021/07/29 04:42:10;0.00;0.00;0.62;0.00;0.00;0.62;4.40;2.97;;;23.50;40.00;;;;;;2265866;61;20607;-58
2021/07/29 04:44:37;0.00;0.00;0.62;0.00;0.00;0.62;3.53;2.60;;;23.50;40.00;;;;;;2266214;61;20381;-59
2021/07/29 04:47:06;0.00;0.00;0.62;0.00;0.00;0.62;3.60;2.67;;;23.50;40.00;;;;;;2266007;61;20354;-57
2021/07/29 04:49:32;0.00;0.00;0.62;0.00;0.00;0.62;3.23;2.73;;;23.50;40.10;;;;;;2265331;61;20436;-56
2021/07/29 04:51:59;0.00;0.00;0.62;0.00;0.00;0.62;2.80;2.50;;;23.50;40.00;;;;;;2266260;61;20342;-57
2021/07/29 04:54:26;0.00;0.00;0.62;0.00;0.00;0.62;2.57;2.37;;;23.60;40.10;;;;;;2265843;61;20380;-55
2021/07/29 04:56:52;0.00;0.00;0.62;0.00;0.00;0.62;7.13;2.50;;;23.60;40.00;;;;;;2266040;61;20361;-56
2021/07/29 04:59:21;0.00;0.00;0.62;0.00;0.00;0.62;3.40;2.70;;;23.60;40.00;;;;;;2266014;61;20773;-55
2021/07/29 05:01:49;0.00;0.00;0.62;0.00;0.00;0.62;4.23;2.27;;;23.70;40.00;;;;;;2265674;61;20378;-54
2021/07/29 05:04:17;0.00;0.00;0.62;0.00;0.00;0.62;3.43;2.80;;;23.70;40.00;;;;;;2265968;61;20449;-56
2021/07/29 05:06:43;0.00;0.00;0.62;0.00;0.00;0.62;3.17;2.57;;;23.70;39.90;;;;;;2266243;61;20596;-57
2021/07/29 05:09:13;0.00;0.00;0.62;0.00;0.00;0.62;3.00;2.30;;;23.80;40.00;;;;;;2265237;61;20361;-55
2021/07/29 05:11:40;0.00;0.00;0.62;0.00;0.00;0.62;3.23;2.30;;;23.80;39.90;;;;;;2265937;61;20675;-55
2021/07/29 05:14:06;0.00;0.00;0.62;0.00;0.00;0.62;2.97;2.67;;;23.80;39.80;;;;;;2266011;61;20733;-53
2021/07/29 05:16:33;0.00;0.00;0.62;0.00;0.00;0.62;3.03;2.73;;;23.90;39.80;;;;;;2265697;61;20353;-52
2021/07/29 05:19:00;0.00;0.00;0.62;0.00;0.00;0.62;5.30;2.70;;;23.90;39.80;;;;;;2265994;61;20357;-54
2021/07/29 05:21:29;0.00;0.00;0.62;0.00;0.00;0.62;4.80;2.87;;;23.90;39.70;;;;;;2265371;61;20354;-55
2021/07/29 05:23:56;0.00;0.00;0.62;0.00;0.00;0.62;4.70;2.07;;;24.00;39.70;;;;;;2265709;61;20374;-56
2021/07/29 05:26:22;0.00;0.00;0.62;0.00;0.00;0.62;2.73;2.40;;;24.00;39.70;;;;;;2266010;61;20400;-52
2021/07/29 05:28:49;0.00;0.00;0.62;0.00;0.00;0.62;2.60;2.40;;;24.00;39.60;;;;;;2265929;61;20356;-57
2021/07/29 05:31:16;0.00;0.00;0.62;0.00;0.00;0.62;3.53;2.57;;;24.00;39.50;;;;;;2265240;61;20358;-56
2021/07/29 05:33:43;0.00;0.00;0.62;0.00;0.00;0.62;6.53;2.60;;;24.10;39.50;;;;;;2266020;61;20361;-56
2021/07/29 05:36:09;0.00;0.00;0.62;0.00;0.00;0.62;3.10;2.40;;;24.10;39.40;;;;;;2266005;61;20427;-51
2021/07/29 05:38:37;0.00;0.00;0.62;0.00;0.00;0.62;4.17;2.73;;;24.10;39.10;;;;;;2265771;61;20354;-56
2021/07/29 05:41:04;0.00;0.00;0.62;0.00;0.00;0.62;3.07;2.40;;;24.10;39.10;;;;;;2264752;61;20441;-53
2021/07/29 05:43:31;0.00;0.00;0.62;0.00;0.00;0.62;4.47;2.20;;;24.10;39.00;;;;;;2265777;61;20593;-52
2021/07/29 05:45:58;0.00;0.00;0.62;0.00;0.00;0.62;2.50;2.20;;;24.10;38.80;;;;;;2265802;61;20416;-54
2021/07/29 05:48:24;0.00;0.00;0.62;0.00;0.00;0.62;5.07;2.70;;;24.10;38.70;;;;;;2265326;61;20357;-55
2021/07/29 05:50:53;0.00;0.00;0.62;0.00;0.00;0.62;3.83;2.37;;;24.10;38.60;;;;;;2265774;61;20361;-55
2021/07/29 05:53:19;0.00;0.00;0.62;0.00;0.00;0.62;3.37;2.73;;;24.00;38.50;;;;;;2266002;61;20350;-53
2021/07/29 05:55:47;0.00;0.00;0.62;0.00;0.00;0.62;4.63;2.40;;;24.00;38.40;;;;;;2265302;61;20378;-56
2021/07/29 05:58:14;0.00;0.00;0.62;0.00;0.00;0.62;3.37;2.40;;;24.00;38.40;;;;;;2265751;61;20361;-55
2021/07/29 06:00:40;0.00;0.00;0.62;0.00;0.00;0.62;5.20;2.60;;;24.00;38.30;;;;;;2265125;61;20354;-52
2021/07/29 06:03:07;0.00;0.00;0.62;0.00;0.00;0.62;5.77;2.60;;;23.90;38.30;;;;;;2265323;61;20388;-57
2021/07/29 06:05:33;0.00;0.00;0.62;0.00;0.00;0.62;2.87;1.90;;;23.90;38.30;;;;;;2265766;61;20533;-56
2021/07/29 06:08:00;0.00;0.00;0.62;0.00;0.00;0.62;3.80;2.43;;;23.90;38.40;;;;;;2265871;61;20361;-57
2021/07/29 06:10:27;0.00;0.00;0.62;0.00;0.00;0.62;4.37;2.50;;;23.90;38.50;;;;;;2265207;61;20445;-56
2021/07/29 06:12:55;0.00;0.00;0.62;0.00;0.00;0.62;3.57;2.50;;;23.90;38.60;;;;;;2265647;61;20693;-55
2021/07/29 06:15:22;0.00;0.00;0.62;0.00;0.00;0.62;6.30;2.43;;;23.80;38.60;;;;;;2265904;61;20382;-54
2021/07/29 06:17:55;0.00;0.00;0.62;0.00;0.00;0.62;3.00;2.47;;;23.80;38.70;;;;;;2265285;61;20361;-57
2021/07/29 06:20:22;0.00;0.00;0.62;0.00;0.00;0.62;2.83;2.20;;;23.80;38.80;;;;;;2265687;61;20432;-53
2021/07/29 06:22:48;0.00;0.00;0.62;0.00;0.00;0.62;3.37;2.43;;;23.80;38.80;;;;;;2265747;61;20787;-54
2021/07/29 06:25:18;0.00;0.00;0.62;0.00;0.00;0.62;4.13;2.40;;;23.80;38.80;;;;;;2265187;61;20795;-51
2021/07/29 06:27:49;0.00;0.00;0.62;0.00;0.00;0.62;4.03;1.90;;;23.70;38.70;;;;;;2265619;61;20739;-57
2021/07/29 06:30:17;0.00;0.00;0.62;0.00;0.00;0.62;4.00;2.30;;;23.70;38.70;;;;;;2265671;61;20354;-56
2021/07/29 06:32:44;0.00;0.00;0.62;0.00;0.00;0.62;3.83;2.07;;;23.70;38.70;;;;;;2264785;61;20354;-53
2021/07/29 06:35:12;0.00;0.00;0.62;0.00;0.00;0.62;5.83;2.70;;;23.70;38.70;;;;;;2265547;61;20413;-53
2021/07/29 06:37:39;0.00;0.00;0.62;0.00;0.00;0.62;4.20;2.47;;;23.70;38.70;;;;;;2265818;61;20358;-56
2021/07/29 06:40:08;0.00;0.00;0.62;0.00;0.00;0.62;3.33;2.30;;;23.70;38.70;;;;;;2265010;61;20350;-52
2021/07/29 06:42:35;0.00;0.00;0.62;0.00;0.00;0.62;3.40;2.40;;;23.70;38.70;;;;;;2265098;61;20476;-54
2021/07/29 06:45:02;0.00;0.00;0.62;0.00;0.00;0.62;10.57;3.20;;;23.70;38.70;;;;;;2265718;61;20373;-55
2021/07/29 06:47:32;0.00;0.00;0.62;0.00;0.00;0.62;3.03;2.30;;;23.60;38.60;;;;;;2265122;61;20405;-56
2021/07/29 06:49:59;0.00;0.00;0.62;0.00;0.00;0.62;2.50;2.23;;;23.60;38.60;;;;;;2265526;61;20428;-56
2021/07/29 06:52:26;0.00;0.00;0.62;0.00;0.00;0.62;4.03;2.60;;;23.60;38.60;;;;;;2265683;61;20356;-53
2021/07/29 06:54:53;0.00;0.00;0.62;0.00;0.00;0.62;3.10;2.10;;;23.60;38.60;;;;;;2265040;61;20639;-56
2021/07/29 06:57:19;0.00;0.00;0.62;0.00;0.00;0.62;4.10;2.63;;;23.60;38.60;;;;;;2265683;61;20365;-53
2021/07/29 06:59:46;0.00;0.00;0.62;0.00;0.00;0.62;6.57;2.67;;;23.60;38.60;;;;;;2265631;61;20361;-53
2021/07/29 07:02:13;0.00;0.00;0.62;0.00;0.00;0.62;3.90;2.47;;;23.60;38.60;;;;;;2264853;61;20389;-53
2021/07/29 07:04:41;0.00;0.00;0.62;0.00;0.00;0.62;4.00;2.30;;;23.60;38.60;;;;;;2265640;61;20370;-53
2021/07/29 07:07:14;0.00;0.00;0.62;0.00;0.00;0.62;3.93;2.60;;;23.60;38.60;;;;;;2265657;61;20381;-56
2021/07/29 07:09:40;0.00;0.00;0.62;0.00;0.00;0.62;2.70;2.37;;;23.60;38.60;;;;;;2264866;61;20350;-53
2021/07/29 07:12:07;0.00;0.00;0.62;0.00;0.00;0.62;6.60;2.40;;;23.50;38.50;;;;;;2265597;61;20584;-53
2021/07/29 07:14:34;0.00;0.00;0.62;0.00;0.00;0.62;3.90;2.20;;;23.50;38.40;;;;;;2265655;61;20377;-54
2021/07/29 07:17:02;0.00;0.00;0.62;0.00;0.00;0.62;3.67;2.53;;;23.50;38.40;;;;;;2264892;61;20358;-54
2021/07/29 07:19:29;0.00;0.00;0.62;0.00;0.00;0.62;4.33;2.40;;;23.50;38.50;;;;;;2265556;61;20577;-58
2021/07/29 07:21:57;0.00;0.00;0.62;0.00;0.00;0.62;3.90;2.03;;;23.50;38.50;;;;;;2265413;61;20400;-58
2021/07/29 07:24:24;0.00;0.00;0.62;0.00;0.00;0.62;6.57;2.30;;;23.50;38.50;;;;;;2264884;61;20432;-53
2021/07/29 07:26:50;0.00;0.00;0.62;0.00;0.00;0.62;3.33;2.83;;;23.50;38.40;;;;;;2265641;61;20358;-55
2021/07/29 07:29:17;0.00;0.00;0.62;0.00;0.00;0.62;3.20;2.43;;;23.50;38.20;;;;;;2265542;61;20386;-56
2021/07/29 07:31:43;0.00;0.00;0.62;0.00;0.00;0.62;5.03;3.20;;;23.50;38.10;;;;;;2264759;61;20593;-58
2021/07/29 07:34:10;0.00;0.00;0.62;0.00;0.00;0.62;5.00;2.53;;;23.50;37.90;;;;;;2265031;61;20397;-50
2021/07/29 07:36:37;0.00;0.00;0.62;0.00;0.00;0.62;8.10;2.60;;;23.40;37.60;;;;;;2265643;61;20381;-53
2021/07/29 07:39:05;0.00;0.00;0.62;0.00;0.00;0.62;4.03;2.40;;;23.40;37.50;;;;;;2264767;61;20579;-54
2021/07/29 07:41:31;0.00;0.00;0.62;0.00;0.00;0.62;3.10;2.67;;;23.40;37.50;;;;;;2265397;61;20433;-57
2021/07/29 07:43:58;0.00;0.00;0.62;0.00;0.00;0.62;3.37;2.30;;;23.40;37.60;;;;;;2265563;61;20401;-55
2021/07/29 07:46:24;0.00;0.00;0.62;0.00;0.00;0.62;4.80;2.47;;;23.40;37.50;;;;;;2264741;61;20357;-56
2021/07/29 07:48:51;0.00;0.00;0.62;0.00;0.00;0.62;4.20;2.67;;;23.40;37.40;;;;;;2265499;61;20377;-56
2021/07/29 07:51:18;0.00;0.00;0.62;0.00;0.00;0.62;3.93;3.20;;;23.40;37.40;;;;;;2265418;61;20696;-55
2021/07/29 07:53:44;0.00;0.00;0.62;0.00;0.00;0.62;3.07;2.67;;;23.40;37.30;;;;;;2264802;61;20350;-57
2021/07/29 07:56:13;0.00;0.00;0.62;0.00;0.00;0.62;5.70;3.57;;;23.40;37.30;;;;;;2265577;61;20374;-57
2021/07/29 07:58:40;0.00;0.00;0.62;0.00;0.00;0.62;4.10;2.73;;;23.40;37.10;;;;;;2265360;61;20405;-55
2021/07/29 08:01:06;0.00;0.00;0.62;0.00;0.00;0.62;3.83;3.20;;;23.40;37.10;;;;;;2264603;61;20642;-58
2021/07/29 08:03:33;0.00;0.00;0.62;0.00;0.00;0.62;5.30;3.17;;;23.40;37.00;;;;;;2265511;61;20467;-56
2021/07/29 08:06:01;0.00;0.00;0.62;0.00;0.00;0.62;6.80;3.10;;;23.40;37.00;;;;;;2265358;61;20454;-59
2021/07/29 08:08:28;0.00;0.00;0.62;0.00;0.00;0.62;6.07;3.23;;;23.40;37.00;;;;;;2264896;61;20539;-56
2021/07/29 08:10:55;0.00;0.00;0.62;0.00;0.00;0.62;5.20;3.00;;;23.40;37.00;;;;;;2265458;61;20357;-57
2021/07/29 08:13:23;0.00;0.00;0.62;0.00;0.00;0.62;4.93;3.30;;;23.40;36.90;;;;;;2265408;61;20372;-54
2021/07/29 08:15:50;0.00;0.00;0.62;0.00;0.00;0.62;4.33;3.20;;;23.40;36.80;;;;;;2264643;61;20498;-53
2021/07/29 08:18:17;0.00;0.00;0.62;0.00;0.00;0.62;3.63;3.17;;;23.40;36.80;;;;;;2265508;61;20373;-59
2021/07/29 08:20:44;0.00;0.00;0.62;0.00;0.00;0.62;7.07;3.40;;;23.40;36.80;;;;;;2265225;61;20615;-57
2021/07/29 08:23:11;0.00;0.00;0.62;0.00;0.00;0.62;3.80;2.53;;;23.40;36.90;;;;;;2264641;61;20385;-55
2021/07/29 08:25:38;0.00;0.00;0.62;0.00;0.00;0.62;3.17;2.60;;;23.40;36.80;;;;;;2265430;61;20386;-56
2021/07/29 08:28:05;0.00;0.00;0.62;0.00;0.00;0.62;5.57;2.90;;;23.40;36.70;;;;;;2264795;61;20443;-56
2021/07/29 08:30:33;0.00;0.00;0.62;0.00;0.00;0.62;3.30;2.50;;;23.40;36.60;;;;;;2264646;61;20560;-56
2021/07/29 08:33:07;0.00;0.00;0.62;0.00;0.00;0.62;3.50;2.70;;;23.40;36.40;;;;;;2265502;61;20703;-52
2021/07/29 08:35:36;0.00;0.00;0.62;0.00;0.00;0.62;4.07;2.73;;;23.40;36.40;;;;;;2265230;61;20380;-57
2021/07/29 08:38:03;0.00;0.00;0.62;0.00;0.00;0.62;3.37;2.70;;;23.40;36.40;;;;;;2264738;61;20623;-55
2021/07/29 08:40:29;0.00;0.00;0.62;0.00;0.00;0.62;3.43;2.90;;;23.40;36.40;;;;;;2265344;61;20354;-57
2021/07/29 08:42:57;0.00;0.00;0.62;0.00;0.00;0.62;5.20;3.07;;;23.40;36.30;;;;;;2265217;61;20377;-55
2021/07/29 08:45:24;0.00;0.00;0.62;0.00;0.00;0.62;4.83;2.87;;;23.40;36.00;;;;;;2264750;61;20382;-55
2021/07/29 08:47:55;0.00;0.00;0.62;0.00;0.00;0.62;4.97;2.73;;;23.40;35.90;;;;;;2265421;61;20354;-54
2021/07/29 08:50:23;0.00;0.00;0.62;0.00;0.00;0.62;5.03;2.50;;;23.40;35.70;;;;;;2265203;61;20361;-56
2021/07/29 08:52:50;0.00;0.00;0.62;0.00;0.00;0.62;3.10;2.37;;;23.40;35.40;;;;;;2264838;61;20361;-56
2021/07/29 08:55:17;0.00;0.00;0.62;0.00;0.00;0.62;2.90;2.57;;;23.40;35.20;;;;;;2265305;61;20389;-56
2021/07/29 08:57:44;0.00;0.00;0.62;0.00;0.00;0.62;3.90;2.87;;;23.50;35.20;;;;;;2265293;61;20487;-57
2021/07/29 09:00:13;0.00;0.00;0.62;0.00;0.00;0.62;6.27;2.90;;;23.50;35.20;;;;;;2264571;61;20725;-55
2021/07/29 09:02:40;0.00;0.00;0.62;0.00;0.00;0.62;5.57;2.83;;;23.50;35.20;;;;;;2265282;61;20384;-59
2021/07/29 09:05:17;0.00;0.00;0.62;0.00;0.00;0.62;5.50;2.87;;;23.50;35.10;;;;;;2265296;61;20374;-55
2021/07/29 09:07:45;0.00;0.00;0.62;0.00;0.00;0.62;3.00;2.57;;;23.50;35.00;;;;;;2264693;61;20381;-56
2021/07/29 09:10:22;0.00;0.00;0.62;0.00;0.00;0.62;4.23;2.60;;;23.50;35.00;;;;;;2265101;61;20351;-56
2021/07/29 09:13:08;0.00;0.00;0.62;0.00;0.00;0.62;3.53;2.57;;;23.50;35.10;;;;;;2265374;61;20353;-55
2021/07/29 09:15:36;0.00;0.00;0.62;0.00;0.00;0.62;3.43;3.00;;;23.50;35.00;;;;;;2264751;61;20405;-55
2021/07/29 09:18:03;0.00;0.00;0.62;0.00;0.00;0.62;4.40;2.50;;;23.50;35.40;;;;;;2265667;61;20357;-58
2021/07/29 09:20:31;0.00;0.00;0.62;0.00;0.00;0.62;3.07;2.40;;;23.50;34.40;;;;;;2265886;61;20362;-56
2021/07/29 09:23:15;0.00;0.00;0.62;0.00;0.00;0.62;4.40;3.03;;;23.50;34.10;;;;;;2265364;61;20386;-54
2021/07/29 09:25:43;0.00;0.00;0.62;0.00;0.00;0.62;4.43;3.07;;;23.50;33.80;;;;;;2265803;61;20373;-54
2021/07/29 09:28:10;0.00;0.00;0.62;0.00;0.00;0.62;3.00;2.50;;;23.50;33.60;;;;;;2265674;61;20361;-57
2021/07/29 09:30:37;0.00;0.00;0.62;0.00;0.00;0.62;2.97;2.33;;;23.50;33.70;;;;;;2265575;61;20365;-54
2021/07/29 09:33:07;0.00;0.00;0.62;0.00;0.00;0.62;3.60;2.60;;;23.50;33.70;;;;;;2265427;61;20354;-58
2021/07/29 09:35:42;0.00;0.00;0.62;0.00;0.00;0.62;4.50;2.80;;;23.60;33.90;;;;;;2265630;61;20399;-53
2021/07/29 09:38:22;0.00;0.00;0.62;0.00;0.00;0.62;3.80;2.73;;;23.60;33.90;;;;;;2265091;61;20377;-55
2021/07/29 09:40:52;0.00;0.00;0.62;0.00;0.00;0.62;3.33;2.70;;;23.60;33.90;;;;;;2265363;61;20580;-52
2021/07/29 09:43:22;0.00;0.00;0.62;0.00;0.00;0.62;6.33;2.83;;;23.60;33.70;;;;;;2265527;61;20388;-55
2021/07/29 09:45:52;0.00;0.00;0.62;0.00;0.00;0.62;4.13;2.77;;;23.60;33.60;;;;;;2265477;61;20377;-55